This is the latest recevied weather packets stored in our database for station/object KN6WGU. If no packets are shown the sender has not sent any weather packets the latest 10 day(s).
| Time | Temp. | Humidity | Pressure | Rain* | Wind** | Luminosity | Snow |
|---|---|---|---|---|---|---|---|
| 1778103555 | 11.11° C | 64% | 1006.1 hPa | 0 mm | - | 84 W/m² | - |
| 1778103253 | 11.11° C | 64% | 1006.1 hPa | 0 mm | - | 86 W/m² | - |
| 1778102950 | 11.67° C | 64% | 1006 hPa | 0 mm | - | 103 W/m² | - |
| 1778102646 | 11.11° C | 63% | 1006 hPa | 0 mm | - | 92 W/m² | - |
| 1778102340 | 11.67° C | 62% | 1005.9 hPa | 0 mm | - | 92 W/m² | - |
| 1778102037 | 12.22° C | 62% | 1006 hPa | 0 mm | - | 111 W/m² | - |
| 1778101734 | 11.67° C | 64% | 1005.7 hPa | 0 mm | - | 217 W/m² | - |
| 1778101431 | 11.67° C | 62% | 1005.7 hPa | 0 mm | - | 155 W/m² | - |
| 1778101128 | 12.22° C | 63% | 1005.9 hPa | 0 mm | - | 146 W/m² | - |
| 1778100824 | 12.22° C | 64% | 1005.9 hPa | 0 mm | - | 180 W/m² | - |
| 1778100521 | 12.22° C | 62% | 1005.8 hPa | 0 mm | - | 190 W/m² | - |
| 1778100218 | 12.78° C | 63% | 1005.8 hPa | 0 mm | - | 236 W/m² | - |
| 1778099916 | 12.78° C | 64% | 1005.8 hPa | 0 mm | - | 211 W/m² | - |
| 1778099613 | 12.78° C | 61% | 1005.7 hPa | 0 mm | - | 225 W/m² | - |
| 1778099309 | 12.78° C | 62% | 1005.7 hPa | 0 mm | - | 249 W/m² | - |
| 1778099007 | 12.78° C | 63% | 1005.6 hPa | 0 mm | - | 307 W/m² | - |
| 1778098703 | 13.89° C | 63% | 1005.8 hPa | 0 mm | - | 140 W/m² | - |
| 1778098401 | 13.89° C | 60% | 1005.8 hPa | 0 mm | - | 328 W/m² | - |
| 1778098097 | 13.89° C | 61% | 1005.8 hPa | 0 mm | - | 471 W/m² | - |
| 1778097793 | 13.33° C | 65% | 1005.9 hPa | 0 mm | - | 603 W/m² | - |
| 1778097489 | 13.33° C | 65% | 1006 hPa | 0 mm | - | 235 W/m² | - |
| 1778097187 | 12.78° C | 65% | 1005.7 hPa | 0 mm | - | 523 W/m² | - |
| 1778096884 | 12.22° C | 65% | 1005.9 hPa | 0 mm | - | 257 W/m² | - |
| 1778096580 | 12.22° C | 65% | 1005.8 hPa | 0 mm | - | 259 W/m² | - |
| 1778096278 | 12.78° C | 65% | 1006.1 hPa | 0 mm | - | 315 W/m² | - |
* Rain latest hour (hover to see other rain measurements)
** Current wind speed in m/s (hover to see current wind gust speed)